createdAt,value
2019-03-17T00:00:00.413Z,3.60
2019-03-17T00:02:28.531Z,4.17
2019-03-17T00:04:56.592Z,4.23
2019-03-17T00:07:24.981Z,4.33
2019-03-17T00:09:53.568Z,4.00
2019-03-17T00:12:21.642Z,3.93
2019-03-17T00:15:04.279Z,4.50
2019-03-17T00:17:21.171Z,4.43
2019-03-17T00:19:49.239Z,4.43
2019-03-17T00:22:17.419Z,4.80
2019-03-17T00:24:45.471Z,5.03
2019-03-17T00:27:15.755Z,4.83
2019-03-17T00:29:43.798Z,4.87
2019-03-17T00:32:11.857Z,5.30
2019-03-17T00:34:44.488Z,5.20
2019-03-17T00:37:09.680Z,5.17
2019-03-17T00:39:37.808Z,5.60
2019-03-17T00:42:07.056Z,5.53
2019-03-17T00:44:35.154Z,5.37
2019-03-17T00:47:03.210Z,4.90
2019-03-17T00:49:31.453Z,5.63
2019-03-17T00:51:59.516Z,5.77
2019-03-17T00:54:27.580Z,5.57
2019-03-17T00:56:55.670Z,5.03
2019-03-17T00:59:23.719Z,5.20
2019-03-17T01:01:51.846Z,5.20
2019-03-17T01:04:20.416Z,5.73
2019-03-17T01:06:48.462Z,5.73
2019-03-17T01:09:16.568Z,5.40
2019-03-17T01:11:44.664Z,5.03
2019-03-17T01:14:12.730Z,5.13
2019-03-17T01:16:41.775Z,5.77
2019-03-17T01:19:09.881Z,5.43
2019-03-17T01:21:37.905Z,6.07
2019-03-17T01:24:05.977Z,5.63
2019-03-17T01:26:34.029Z,5.43
2019-03-17T01:29:02.109Z,5.83
2019-03-17T01:31:31.240Z,5.50
2019-03-17T01:33:59.294Z,5.50
2019-03-17T01:36:27.426Z,6.20
2019-03-17T01:38:55.543Z,5.37
2019-03-17T01:41:23.601Z,5.93
2019-03-17T01:43:51.687Z,5.40
2019-03-17T01:46:19.667Z,5.47
2019-03-17T01:48:47.799Z,5.50
2019-03-17T01:51:15.949Z,5.00
2019-03-17T01:53:44.022Z,5.17
2019-03-17T01:56:12.121Z,6.10
2019-03-17T01:59:04.333Z,5.53
2019-03-17T02:01:32.449Z,5.87
2019-03-17T02:04:00.544Z,5.27
2019-03-17T02:06:28.616Z,5.63
2019-03-17T02:08:56.642Z,5.90
2019-03-17T02:11:24.605Z,6.00
2019-03-17T02:13:52.655Z,6.03
2019-03-17T02:16:20.667Z,4.93
2019-03-17T02:18:48.771Z,6.30
2019-03-17T02:21:16.808Z,6.17
2019-03-17T02:23:44.758Z,5.80
2019-03-17T02:26:12.800Z,5.43
2019-03-17T02:28:40.937Z,5.80
2019-03-17T02:31:09.040Z,6.30
2019-03-17T02:33:37.123Z,5.43
2019-03-17T02:36:05.198Z,6.00
2019-03-17T02:38:33.400Z,5.17
2019-03-17T02:41:01.438Z,5.70
2019-03-17T02:43:29.497Z,6.20
2019-03-17T02:45:57.533Z,5.73
2019-03-17T02:48:25.543Z,6.73
2019-03-17T02:50:53.567Z,5.73
2019-03-17T02:53:21.611Z,5.43
2019-03-17T02:55:49.657Z,5.90
2019-03-17T02:58:17.688Z,5.97
2019-03-17T03:00:45.815Z,5.33
2019-03-17T03:03:13.815Z,5.20
2019-03-17T03:05:54.026Z,5.90
2019-03-17T03:08:11.532Z,5.80
2019-03-17T03:10:39.679Z,6.07
2019-03-17T03:13:07.736Z,5.47
2019-03-17T03:15:35.747Z,5.50
2019-03-17T03:18:03.776Z,5.13
2019-03-17T03:20:31.831Z,6.00
2019-03-17T03:22:59.881Z,5.70
2019-03-17T03:25:27.922Z,5.73
2019-03-17T03:27:55.952Z,5.67
2019-03-17T03:30:24.016Z,5.50
2019-03-17T03:32:52.056Z,5.30
2019-03-17T03:35:20.166Z,5.10
2019-03-17T03:37:48.240Z,5.53
2019-03-17T03:40:16.275Z,6.07
2019-03-17T03:42:44.313Z,6.07
2019-03-17T03:45:12.347Z,5.63
2019-03-17T03:47:40.354Z,5.77
2019-03-17T03:50:08.433Z,5.70
2019-03-17T03:52:36.510Z,5.83
2019-03-17T03:55:05.101Z,5.43
2019-03-17T03:57:33.128Z,6.03
2019-03-17T04:00:34.399Z,6.07
2019-03-17T04:03:02.453Z,5.77
2019-03-17T04:05:32.714Z,6.33
2019-03-17T04:08:00.145Z,6.23
2019-03-17T04:10:28.225Z,5.37
2019-03-17T04:12:56.324Z,6.13
2019-03-17T04:15:24.358Z,5.80
2019-03-17T04:17:52.432Z,5.83
2019-03-17T04:20:20.396Z,6.07
2019-03-17T04:22:48.483Z,5.27
2019-03-17T04:25:17.867Z,5.40
2019-03-17T04:27:45.917Z,5.83
2019-03-17T04:30:13.964Z,5.13
2019-03-17T04:32:41.976Z,4.97
2019-03-17T04:35:10.032Z,5.00
2019-03-17T04:37:38.089Z,4.87
2019-03-17T04:40:06.215Z,4.63
2019-03-17T04:42:34.254Z,4.30
2019-03-17T04:45:02.225Z,4.60
2019-03-17T04:47:30.304Z,3.90
2019-03-17T04:49:58.310Z,4.43
2019-03-17T04:52:26.347Z,4.07
2019-03-17T04:54:54.378Z,3.97
2019-03-17T04:57:22.420Z,3.80
2019-03-17T04:59:50.503Z,3.40
2019-03-17T05:02:18.632Z,3.50
2019-03-17T05:04:46.639Z,4.03
2019-03-17T05:07:14.682Z,3.33
2019-03-17T05:09:42.715Z,3.43
2019-03-17T05:12:10.743Z,3.27
2019-03-17T05:14:38.750Z,3.47
2019-03-17T05:17:06.807Z,3.50
2019-03-17T05:19:34.843Z,3.93
2019-03-17T05:22:02.915Z,3.80
2019-03-17T05:24:30.924Z,4.07
2019-03-17T05:26:58.952Z,3.50
2019-03-17T05:29:27.108Z,3.43
2019-03-17T05:31:55.130Z,3.93
2019-03-17T05:34:23.196Z,4.07
2019-03-17T05:36:51.260Z,4.13
2019-03-17T05:39:19.299Z,3.70
2019-03-17T05:41:47.328Z,3.93
2019-03-17T05:44:15.368Z,3.87
2019-03-17T05:46:43.434Z,3.67
2019-03-17T05:49:11.470Z,3.47
2019-03-17T05:51:39.500Z,4.30
2019-03-17T05:54:07.545Z,4.20
2019-03-17T05:56:35.576Z,3.83
2019-03-17T05:59:03.602Z,3.90
2019-03-17T06:01:31.633Z,3.80
2019-03-17T06:03:59.701Z,3.93
2019-03-17T06:06:27.719Z,3.30
2019-03-17T06:08:56.780Z,3.80
2019-03-17T06:11:24.809Z,4.10
2019-03-17T06:13:52.877Z,3.60
2019-03-17T06:16:20.952Z,3.60
2019-03-17T06:18:48.982Z,3.20
2019-03-17T06:21:16.992Z,3.50
2019-03-17T06:23:45.033Z,3.50
2019-03-17T06:26:13.104Z,3.60
2019-03-17T06:28:41.167Z,3.90
2019-03-17T06:31:09.236Z,3.77
2019-03-17T06:33:37.273Z,4.37
2019-03-17T06:36:05.364Z,3.80
2019-03-17T06:38:33.398Z,4.10
2019-03-17T06:41:04.248Z,3.93
2019-03-17T06:43:31.294Z,4.50
2019-03-17T06:45:59.315Z,4.93
2019-03-17T06:48:27.453Z,3.73
2019-03-17T06:50:55.527Z,4.10
2019-03-17T06:53:23.709Z,3.77
2019-03-17T06:55:52.091Z,3.40
2019-03-17T06:58:20.183Z,1.70
2019-03-17T07:00:48.259Z,1.00
2019-03-17T07:03:16.296Z,1.17
2019-03-17T07:05:44.467Z,1.10
2019-03-17T07:08:12.507Z,1.03
2019-03-17T07:10:40.613Z,0.90
2019-03-17T07:13:08.645Z,1.00
2019-03-17T07:15:36.669Z,0.90
2019-03-17T07:18:04.741Z,0.80
2019-03-17T07:20:32.782Z,1.30
2019-03-17T07:23:00.855Z,0.90
2019-03-17T07:25:28.920Z,1.17
2019-03-17T07:27:57.458Z,1.03
2019-03-17T07:30:25.501Z,1.10
2019-03-17T07:32:53.568Z,1.30
2019-03-17T07:35:21.644Z,1.00
2019-03-17T07:37:56.644Z,1.10
2019-03-17T07:40:19.355Z,1.10
2019-03-17T07:42:47.393Z,1.10
2019-03-17T07:45:15.471Z,1.00
2019-03-17T07:47:43.520Z,0.70
2019-03-17T07:50:11.576Z,0.93
2019-03-17T07:52:39.694Z,1.37
2019-03-17T07:55:08.062Z,0.90
2019-03-17T07:57:36.132Z,1.57
2019-03-17T08:00:04.475Z,0.90
2019-03-17T08:02:32.530Z,1.43
2019-03-17T08:05:00.585Z,1.40
2019-03-17T08:07:28.670Z,1.10
2019-03-17T08:09:56.717Z,1.33
2019-03-17T08:12:24.770Z,1.13
2019-03-17T08:14:52.816Z,1.07
2019-03-17T08:17:20.897Z,0.80
2019-03-17T08:19:48.916Z,0.83
2019-03-17T08:22:16.974Z,1.00
2019-03-17T08:24:45.923Z,0.70
2019-03-17T08:27:13.995Z,0.97
2019-03-17T08:29:42.063Z,0.70
2019-03-17T08:32:10.144Z,0.90
2019-03-17T08:34:38.241Z,1.07
2019-03-17T08:37:06.260Z,1.00
2019-03-17T08:39:34.321Z,1.57
2019-03-17T08:42:02.397Z,1.43
2019-03-17T08:44:30.439Z,1.30
2019-03-17T08:46:58.476Z,2.70
2019-03-17T08:49:26.545Z,1.20
2019-03-17T08:52:06.306Z,1.17
2019-03-17T08:54:34.319Z,1.43
2019-03-17T08:57:02.437Z,1.57
2019-03-17T08:59:30.511Z,1.20
2019-03-17T09:01:58.542Z,1.30
2019-03-17T09:04:26.664Z,1.73
2019-03-17T09:06:54.714Z,1.83
2019-03-17T09:09:22.829Z,1.60
2019-03-17T09:11:50.889Z,1.23
2019-03-17T09:14:18.977Z,1.50
2019-03-17T09:16:47.094Z,2.17
2019-03-17T09:19:15.223Z,1.57
2019-03-17T09:21:43.228Z,1.53
2019-03-17T09:24:17.261Z,2.10
2019-03-17T09:26:41.073Z,1.30
2019-03-17T09:29:09.182Z,1.77
2019-03-17T09:31:37.251Z,1.90
2019-03-17T09:34:05.322Z,1.60
2019-03-17T09:36:33.380Z,1.53
2019-03-17T09:39:01.449Z,1.57
2019-03-17T09:41:29.595Z,1.97
2019-03-17T09:43:57.647Z,1.80
2019-03-17T09:46:25.718Z,1.63
2019-03-17T09:48:53.791Z,1.93
2019-03-17T09:51:21.863Z,1.73
2019-03-17T09:53:49.987Z,1.47
2019-03-17T09:56:18.066Z,1.90
2019-03-17T09:58:46.131Z,1.37
2019-03-17T10:01:14.232Z,1.90
2019-03-17T10:04:03.318Z,2.33
2019-03-17T10:06:31.373Z,1.93
2019-03-17T10:09:00.554Z,1.60
2019-03-17T10:11:28.769Z,2.07
2019-03-17T10:13:59.057Z,1.77
2019-03-17T10:16:26.935Z,1.90
2019-03-17T10:18:54.952Z,1.90
2019-03-17T10:21:23.034Z,1.63
2019-03-17T10:23:51.085Z,1.83
2019-03-17T10:26:19.169Z,1.57
2019-03-17T10:28:47.231Z,1.77
2019-03-17T10:31:15.254Z,1.67
2019-03-17T10:33:45.604Z,1.83
2019-03-17T10:36:13.003Z,1.40
2019-03-17T10:38:41.088Z,1.83
2019-03-17T10:41:09.190Z,1.80
2019-03-17T10:43:37.232Z,2.10
2019-03-17T10:46:05.407Z,1.60
2019-03-17T10:48:33.449Z,1.90
2019-03-17T10:51:01.504Z,1.97
2019-03-17T10:53:29.551Z,1.63
2019-03-17T10:55:57.662Z,2.23
2019-03-17T10:58:25.793Z,1.70
2019-03-17T11:00:54.207Z,1.30
2019-03-17T11:03:23.893Z,2.50
2019-03-17T11:05:54.407Z,2.27
2019-03-17T11:08:21.689Z,1.80
2019-03-17T11:10:54.025Z,1.53
2019-03-17T11:13:22.061Z,2.10
2019-03-17T11:15:50.121Z,1.67
2019-03-17T11:18:18.212Z,1.83
2019-03-17T11:20:46.303Z,2.13
2019-03-17T11:23:14.374Z,1.80
2019-03-17T11:25:42.429Z,2.07
2019-03-17T11:28:10.512Z,1.90
2019-03-17T11:30:38.587Z,1.63
2019-03-17T11:33:06.688Z,1.87
2019-03-17T11:35:34.731Z,1.87
2019-03-17T11:38:02.850Z,1.27
2019-03-17T11:40:30.918Z,2.10
2019-03-17T11:42:58.999Z,1.57
2019-03-17T11:45:27.121Z,1.53
2019-03-17T11:47:55.235Z,1.93
2019-03-17T11:50:23.335Z,1.40
2019-03-17T11:53:24.835Z,1.57
2019-03-17T11:55:52.911Z,1.70
2019-03-17T11:58:41.714Z,1.53
2019-03-17T12:01:09.802Z,1.20
2019-03-17T12:03:37.848Z,1.20
2019-03-17T12:06:05.910Z,1.33
2019-03-17T12:08:34.319Z,1.70
2019-03-17T12:11:02.413Z,2.33
2019-03-17T12:13:30.538Z,1.87
2019-03-17T12:15:58.653Z,1.50
2019-03-17T12:18:26.718Z,1.70
2019-03-17T12:20:58.002Z,1.53
2019-03-17T12:23:26.095Z,1.87
2019-03-17T12:25:54.342Z,1.53
2019-03-17T12:28:22.460Z,1.60
2019-03-17T12:30:50.567Z,2.33
2019-03-17T12:33:18.630Z,1.53
2019-03-17T12:35:46.667Z,1.80
2019-03-17T12:38:14.767Z,1.50
2019-03-17T12:40:42.887Z,1.60
2019-03-17T12:43:10.958Z,2.20
2019-03-17T12:45:39.108Z,3.90
2019-03-17T12:48:07.172Z,3.30
2019-03-17T12:50:35.220Z,2.20
2019-03-17T12:53:03.310Z,2.03
2019-03-17T12:55:31.371Z,2.40
2019-03-17T12:58:32.840Z,1.83
2019-03-17T13:01:00.956Z,1.73
2019-03-17T13:03:29.037Z,2.93
2019-03-17T13:05:57.094Z,1.67
2019-03-17T13:08:25.163Z,1.37
2019-03-17T13:10:54.246Z,1.07
2019-03-17T13:13:22.346Z,1.00
2019-03-17T13:15:50.407Z,1.00
2019-03-17T13:18:18.454Z,1.00
2019-03-17T13:20:46.550Z,0.90
2019-03-17T13:23:14.624Z,1.00
2019-03-17T13:28:52.554Z,1.40
2019-03-17T13:31:20.765Z,0.63
2019-03-17T13:33:48.981Z,1.60
2019-03-17T13:36:17.045Z,1.07
2019-03-17T13:38:45.152Z,1.17
2019-03-17T13:41:13.202Z,1.10
2019-03-17T13:43:41.282Z,1.30
2019-03-17T13:46:09.265Z,1.30
2019-03-17T13:48:37.323Z,1.30
2019-03-17T13:51:05.404Z,1.63
2019-03-17T13:53:33.442Z,1.30
2019-03-17T13:56:01.565Z,1.20
2019-03-17T13:58:30.033Z,1.10
2019-03-17T14:00:58.101Z,1.07
2019-03-17T14:03:28.125Z,0.80
2019-03-17T14:05:56.196Z,1.07
2019-03-17T14:08:24.266Z,1.73
2019-03-17T14:10:52.378Z,1.57
2019-03-17T14:13:20.416Z,1.20
2019-03-17T14:15:48.526Z,0.93
2019-03-17T14:18:16.595Z,1.10
2019-03-17T14:20:44.698Z,1.00
2019-03-17T14:23:12.895Z,1.40
2019-03-17T14:25:40.968Z,1.20
2019-03-17T14:28:09.080Z,1.10
2019-03-17T14:30:37.145Z,1.10
2019-03-17T14:33:05.296Z,1.70
2019-03-17T14:35:33.366Z,1.40
2019-03-17T14:38:01.438Z,1.47
2019-03-17T14:40:29.535Z,1.20
2019-03-17T14:42:57.613Z,1.20
2019-03-17T14:45:25.683Z,1.20
2019-03-17T14:51:02.948Z,1.10
2019-03-17T14:53:31.038Z,1.23
2019-03-17T14:59:08.361Z,1.00
2019-03-17T15:04:46.038Z,1.07
2019-03-17T15:07:14.131Z,1.30
2019-03-17T15:09:42.732Z,1.13
2019-03-17T15:12:10.774Z,1.37
2019-03-17T15:14:38.905Z,1.00
2019-03-17T15:17:07.014Z,1.07
2019-03-17T15:19:35.086Z,1.47
2019-03-17T15:22:03.600Z,1.23
2019-03-17T15:24:31.689Z,1.27
2019-03-17T15:26:59.851Z,1.73
2019-03-17T15:29:30.988Z,1.60
2019-03-17T15:32:00.320Z,2.73
2019-03-17T15:34:28.377Z,1.70
2019-03-17T15:36:56.551Z,2.10
2019-03-17T15:39:24.641Z,2.23
2019-03-17T15:41:52.746Z,1.97
2019-03-17T15:44:21.161Z,2.03
2019-03-17T15:46:49.244Z,3.30
2019-03-17T15:49:17.538Z,1.13
2019-03-17T15:51:45.639Z,1.43
2019-03-17T15:54:13.716Z,1.90
2019-03-17T15:56:42.143Z,1.00
2019-03-17T15:59:10.254Z,1.60
2019-03-17T16:01:38.320Z,5.33
2019-03-17T16:04:06.427Z,1.90
2019-03-17T16:06:34.840Z,6.47
2019-03-17T16:09:03.145Z,2.97
2019-03-17T16:11:31.441Z,1.80
2019-03-17T16:13:59.611Z,3.23
2019-03-17T16:16:27.652Z,3.70
2019-03-17T16:18:55.765Z,1.73
2019-03-17T16:21:23.866Z,3.33
2019-03-17T16:23:51.952Z,2.83
2019-03-17T16:26:20.109Z,2.63
2019-03-17T16:28:48.180Z,3.00
2019-03-17T16:31:16.192Z,2.30
2019-03-17T16:33:44.304Z,1.97
2019-03-17T16:36:12.337Z,2.07
2019-03-17T16:38:40.423Z,1.93
2019-03-17T16:41:08.476Z,1.97
2019-03-17T16:43:36.548Z,1.90
2019-03-17T16:46:04.630Z,2.10
2019-03-17T16:48:32.786Z,2.43
2019-03-17T16:51:00.874Z,2.30
2019-03-17T16:53:28.979Z,1.90
2019-03-17T16:55:57.093Z,1.63
2019-03-17T16:58:25.222Z,1.80
2019-03-17T17:01:47.670Z,1.63
2019-03-17T17:04:15.786Z,1.67
2019-03-17T17:06:43.889Z,1.70
2019-03-17T17:09:12.003Z,2.80
2019-03-17T17:11:40.126Z,2.87
2019-03-17T17:14:08.279Z,1.97
2019-03-17T17:17:07.999Z,2.30
2019-03-17T17:19:36.123Z,2.93
2019-03-17T17:22:22.735Z,1.90
2019-03-17T17:24:50.935Z,1.90
2019-03-17T17:27:20.601Z,1.87
2019-03-17T17:29:49.104Z,1.90
2019-03-17T17:32:17.238Z,2.40
2019-03-17T17:34:45.411Z,2.30
2019-03-17T17:37:13.560Z,2.10
2019-03-17T17:39:42.147Z,3.90
2019-03-17T17:42:10.465Z,3.20
2019-03-17T17:44:38.698Z,1.93
2019-03-17T17:47:06.837Z,2.13
2019-03-17T17:49:34.983Z,2.00
2019-03-17T17:52:03.732Z,2.93
2019-03-17T17:54:31.964Z,2.90
2019-03-17T17:57:00.075Z,2.50
2019-03-17T17:59:28.210Z,2.60
2019-03-17T18:01:56.281Z,2.03
2019-03-17T18:04:24.463Z,2.33
2019-03-17T18:07:10.677Z,1.70
2019-03-17T18:09:38.763Z,4.00
2019-03-17T18:12:06.950Z,2.40
2019-03-17T18:14:35.215Z,2.10
2019-03-17T18:17:03.374Z,1.90
2019-03-17T18:19:31.656Z,1.73
2019-03-17T18:21:59.875Z,1.93
2019-03-17T18:24:28.078Z,2.37
2019-03-17T18:26:56.580Z,2.60
2019-03-17T18:29:24.849Z,2.47
2019-03-17T18:31:53.230Z,2.23
2019-03-17T18:34:21.341Z,2.80
2019-03-17T18:36:49.617Z,1.83
2019-03-17T18:39:17.716Z,1.90
2019-03-17T18:41:45.918Z,1.73
2019-03-17T18:44:14.090Z,2.80
2019-03-17T18:46:42.231Z,8.50
2019-03-17T18:49:10.478Z,2.20
2019-03-17T18:51:38.547Z,2.13
2019-03-17T18:54:06.703Z,3.70
2019-03-17T18:56:34.846Z,3.80
2019-03-17T18:59:02.966Z,3.93
2019-03-17T19:01:31.127Z,2.47
2019-03-17T19:03:59.403Z,3.77
2019-03-17T19:06:27.543Z,2.83
2019-03-17T19:08:55.612Z,2.10
2019-03-17T19:11:23.759Z,2.80
2019-03-17T19:13:51.963Z,1.67
2019-03-17T19:16:20.120Z,3.33
2019-03-17T19:18:48.256Z,2.20
2019-03-17T19:21:16.279Z,2.67
2019-03-17T19:23:44.350Z,2.03
2019-03-17T19:26:12.522Z,2.20
2019-03-17T19:28:40.631Z,1.93
2019-03-17T19:31:08.713Z,1.80
2019-03-17T19:33:36.771Z,1.80
2019-03-17T19:36:04.884Z,2.47
2019-03-17T19:38:32.944Z,2.47
2019-03-17T19:41:02.124Z,1.93
2019-03-17T19:43:30.422Z,1.90
2019-03-17T19:46:00.615Z,2.43
2019-03-17T19:48:28.329Z,2.10
2019-03-17T19:50:56.451Z,3.23
2019-03-17T19:53:24.710Z,2.27
2019-03-17T19:55:52.852Z,1.93
2019-03-17T19:58:20.974Z,1.87
2019-03-17T20:00:49.048Z,2.10
2019-03-17T20:03:17.171Z,1.80
2019-03-17T20:05:45.265Z,2.27
2019-03-17T20:08:13.415Z,2.80
2019-03-17T20:10:41.559Z,2.70
2019-03-17T20:13:12.033Z,2.53
2019-03-17T20:15:39.362Z,3.50
2019-03-17T20:18:07.863Z,3.27
2019-03-17T20:20:36.034Z,1.90
2019-03-17T20:23:04.132Z,3.47
2019-03-17T20:25:32.286Z,1.90
2019-03-17T20:28:00.409Z,1.50
2019-03-17T20:30:28.624Z,1.80
2019-03-17T20:32:56.809Z,2.27
2019-03-17T20:35:24.844Z,1.97
2019-03-17T20:37:52.964Z,1.80
2019-03-17T20:40:21.122Z,1.83
2019-03-17T20:42:49.420Z,1.40
2019-03-17T20:48:14.623Z,1.87
2019-03-17T20:50:51.953Z,2.00
2019-03-17T20:53:20.086Z,2.17
2019-03-17T20:55:48.222Z,2.27
2019-03-17T20:58:16.362Z,1.53
2019-03-17T21:00:44.429Z,1.50
2019-03-17T21:03:12.621Z,1.60
2019-03-17T21:05:40.658Z,1.30
2019-03-17T21:08:08.799Z,2.10
2019-03-17T21:10:36.853Z,1.83
2019-03-17T21:13:04.922Z,1.73
2019-03-17T21:15:33.090Z,2.13
2019-03-17T21:18:01.338Z,2.20
2019-03-17T21:20:29.455Z,1.60
2019-03-17T21:22:57.641Z,1.63
2019-03-17T21:25:25.724Z,1.93
2019-03-17T21:27:53.828Z,2.23
2019-03-17T21:30:21.939Z,1.80
2019-03-17T21:32:50.060Z,1.70
2019-03-17T21:35:18.072Z,1.87
2019-03-17T21:37:46.165Z,1.97
2019-03-17T21:40:14.277Z,2.47
2019-03-17T21:42:42.370Z,2.00
2019-03-17T21:45:10.485Z,2.20
2019-03-17T21:47:38.665Z,2.07
2019-03-17T21:50:07.287Z,2.10
2019-03-17T21:52:35.408Z,1.60
2019-03-17T21:55:03.524Z,1.90
2019-03-17T21:57:31.607Z,1.37
2019-03-17T21:59:59.727Z,1.83
2019-03-17T22:02:27.834Z,1.67
2019-03-17T22:04:55.962Z,2.20
2019-03-17T22:07:24.050Z,1.67
2019-03-17T22:09:52.144Z,1.90
2019-03-17T22:12:20.210Z,2.40
2019-03-17T22:14:48.283Z,1.80
2019-03-17T22:17:16.391Z,1.70
2019-03-17T22:19:44.450Z,1.67
2019-03-17T22:22:12.453Z,1.90
2019-03-17T22:25:10.736Z,2.47
2019-03-17T22:27:38.807Z,1.67
2019-03-17T22:30:07.534Z,1.90
2019-03-17T22:32:35.733Z,2.50
2019-03-17T22:35:03.887Z,1.73
2019-03-17T22:37:32.106Z,1.93
2019-03-17T22:40:00.371Z,2.00
2019-03-17T22:42:28.433Z,2.03
2019-03-17T22:44:56.549Z,1.70
2019-03-17T22:50:34.665Z,1.90
2019-03-17T22:53:03.056Z,1.80
2019-03-17T22:55:31.118Z,1.77
2019-03-17T22:57:59.481Z,1.60
2019-03-17T23:00:46.536Z,1.93
2019-03-17T23:03:14.613Z,1.60
2019-03-17T23:05:42.694Z,1.73
2019-03-17T23:08:10.748Z,1.80
2019-03-17T23:10:38.818Z,1.77
2019-03-17T23:13:06.918Z,1.87
2019-03-17T23:15:35.934Z,1.60
2019-03-17T23:18:04.328Z,1.83
2019-03-17T23:20:32.478Z,1.70
2019-03-17T23:23:00.527Z,1.50
2019-03-17T23:25:28.618Z,1.50
2019-03-17T23:27:56.667Z,2.10
2019-03-17T23:30:24.849Z,1.97
2019-03-17T23:32:52.903Z,1.90
2019-03-17T23:35:20.981Z,1.80
2019-03-17T23:37:49.061Z,1.40
2019-03-17T23:40:17.326Z,1.57
2019-03-17T23:45:55.046Z,2.20
2019-03-17T23:48:23.121Z,1.93
2019-03-17T23:50:51.213Z,1.90
2019-03-17T23:53:19.297Z,1.53
2019-03-17T23:55:47.337Z,2.37
2019-03-17T23:58:15.416Z,2.60
